createdAt,value
2018-11-27T00:00:18.881Z,71.80
2018-11-27T00:02:47.441Z,72.10
2018-11-27T00:05:16.018Z,72.50
2018-11-27T00:07:44.544Z,72.20
2018-11-27T00:10:13.012Z,72.30
2018-11-27T00:12:41.441Z,73.20
2018-11-27T00:15:11.165Z,71.90
2018-11-27T00:17:39.962Z,72.10
2018-11-27T00:20:11.558Z,72.20
2018-11-27T00:22:40.100Z,72.80
2018-11-27T00:25:11.577Z,72.90
2018-11-27T00:27:40.144Z,72.60
2018-11-27T00:30:10.811Z,72.70
2018-11-27T00:32:41.024Z,72.40
2018-11-27T00:35:10.590Z,73.30
2018-11-27T00:37:39.087Z,72.30
2018-11-27T00:40:13.503Z,72.30
2018-11-27T00:42:42.220Z,71.80
2018-11-27T00:45:12.114Z,71.70
2018-11-27T00:47:41.114Z,71.90
2018-11-27T00:50:13.803Z,71.50
2018-11-27T00:52:42.363Z,71.70
2018-11-27T00:55:11.977Z,71.30
2018-11-27T00:57:41.406Z,71.60
2018-11-27T01:00:13.551Z,70.90
2018-11-27T01:02:41.898Z,71.60
2018-11-27T01:05:12.802Z,71.60
2018-11-27T01:07:41.447Z,71.60
2018-11-27T01:10:13.100Z,71.80
2018-11-27T01:12:41.717Z,71.70
2018-11-27T01:15:11.579Z,72.20
2018-11-27T01:17:42.881Z,71.70
2018-11-27T01:20:13.672Z,71.60
2018-11-27T01:22:42.100Z,71.70
2018-11-27T01:25:11.169Z,71.00
2018-11-27T01:27:39.641Z,71.30
2018-11-27T01:30:13.743Z,73.30
2018-11-27T01:32:42.521Z,72.20
2018-11-27T01:35:13.828Z,72.50
2018-11-27T01:37:42.409Z,72.60
2018-11-27T01:40:16.346Z,72.00
2018-11-27T01:42:46.553Z,72.80
2018-11-27T01:45:16.459Z,72.70
2018-11-27T01:47:45.087Z,73.20
2018-11-27T01:50:14.630Z,73.40
2018-11-27T01:52:43.118Z,73.20
2018-11-27T01:55:12.930Z,72.90
2018-11-27T01:57:42.343Z,72.80
2018-11-27T02:00:15.897Z,72.90
2018-11-27T02:02:44.431Z,73.20
2018-11-27T02:05:12.787Z,73.50
2018-11-27T02:07:41.293Z,73.10
2018-11-27T02:10:11.060Z,73.20
2018-11-27T02:12:40.191Z,72.90
2018-11-27T02:15:12.944Z,73.10
2018-11-27T02:17:41.356Z,73.50
2018-11-27T02:20:11.053Z,73.60
2018-11-27T02:22:39.603Z,73.60
2018-11-27T02:25:11.057Z,74.10
2018-11-27T02:27:39.701Z,74.60
2018-11-27T02:30:10.621Z,74.70
2018-11-27T02:32:39.185Z,74.90
2018-11-27T02:35:09.484Z,75.30
2018-11-27T02:37:38.006Z,75.30
2018-11-27T02:40:08.720Z,75.00
2018-11-27T02:42:37.403Z,75.30
2018-11-27T02:45:08.117Z,75.00
2018-11-27T02:47:36.592Z,75.40
2018-11-27T02:50:05.903Z,75.40
2018-11-27T02:52:34.371Z,75.70
2018-11-27T02:55:02.746Z,76.50
2018-11-27T02:57:31.124Z,76.80
2018-11-27T03:00:00.187Z,77.40
2018-11-27T03:02:28.605Z,77.20
2018-11-27T03:04:57.103Z,77.10
2018-11-27T03:07:25.530Z,77.70
2018-11-27T03:09:53.954Z,77.90
2018-11-27T03:12:22.541Z,77.80
2018-11-27T03:14:51.091Z,77.50
2018-11-27T03:17:19.521Z,78.00
2018-11-27T03:19:48.018Z,78.80
2018-11-27T03:22:16.464Z,79.00
2018-11-27T03:24:44.957Z,78.80
2018-11-27T03:27:13.345Z,78.80
2018-11-27T03:29:41.816Z,79.30
2018-11-27T03:32:10.493Z,79.90
2018-11-27T03:34:38.896Z,79.80
2018-11-27T03:37:07.273Z,80.50
2018-11-27T03:39:35.920Z,80.10
2018-11-27T03:42:04.385Z,80.80
2018-11-27T03:44:32.776Z,80.90
2018-11-27T03:47:01.182Z,80.40
2018-11-27T03:49:29.558Z,81.00
2018-11-27T03:51:57.982Z,80.80
2018-11-27T03:54:26.356Z,80.90
2018-11-27T03:56:54.758Z,80.10
2018-11-27T03:59:23.173Z,79.90
2018-11-27T04:01:51.697Z,78.90
2018-11-27T04:04:20.102Z,78.60
2018-11-27T04:06:48.605Z,78.50
2018-11-27T04:09:16.869Z,78.90
2018-11-27T04:11:45.378Z,78.90
2018-11-27T04:14:13.755Z,77.50
2018-11-27T04:16:42.141Z,76.60
2018-11-27T04:19:10.640Z,76.70
2018-11-27T04:21:39.097Z,76.30
2018-11-27T04:24:07.467Z,76.50
2018-11-27T04:26:35.848Z,76.40
2018-11-27T04:29:04.927Z,76.20
2018-11-27T04:31:33.630Z,76.60
2018-11-27T04:34:02.154Z,75.40
2018-11-27T04:36:30.583Z,75.40
2018-11-27T04:38:58.965Z,75.40
2018-11-27T04:41:27.478Z,75.70
2018-11-27T04:43:55.961Z,75.80
2018-11-27T04:46:24.280Z,76.50
2018-11-27T04:48:52.790Z,76.30
2018-11-27T04:51:21.264Z,76.50
2018-11-27T04:53:49.631Z,76.30
2018-11-27T04:56:18.073Z,75.70
2018-11-27T04:58:46.430Z,75.40
2018-11-27T05:01:14.754Z,75.40
2018-11-27T05:03:43.172Z,75.40
2018-11-27T05:06:11.643Z,75.40
2018-11-27T05:08:40.034Z,75.00
2018-11-27T05:11:08.399Z,74.10
2018-11-27T05:13:36.756Z,74.30
2018-11-27T05:16:05.797Z,74.70
2018-11-27T05:18:34.157Z,73.90
2018-11-27T05:21:02.777Z,73.10
2018-11-27T05:23:31.234Z,72.00
2018-11-27T05:25:59.649Z,70.80
2018-11-27T05:28:28.130Z,69.50
2018-11-27T05:30:56.788Z,70.90
2018-11-27T05:33:25.161Z,70.00
2018-11-27T05:35:53.467Z,70.70
2018-11-27T05:38:21.790Z,70.10
2018-11-27T05:40:50.235Z,70.00
2018-11-27T05:43:18.572Z,69.50
2018-11-27T05:45:47.246Z,71.00
2018-11-27T05:48:15.682Z,70.40
2018-11-27T05:50:44.453Z,70.90
2018-11-27T05:53:12.971Z,70.60
2018-11-27T05:55:41.388Z,70.80
2018-11-27T05:58:09.806Z,70.90
2018-11-27T06:00:38.174Z,70.10
2018-11-27T06:03:09.168Z,69.80
2018-11-27T06:05:37.693Z,69.40
2018-11-27T06:08:06.534Z,69.00
2018-11-27T06:10:35.019Z,69.90
2018-11-27T06:13:03.494Z,70.10
2018-11-27T06:15:32.713Z,70.20
2018-11-27T06:18:02.120Z,70.40
2018-11-27T06:20:30.463Z,70.90
2018-11-27T06:22:58.927Z,70.90
2018-11-27T06:25:28.411Z,69.70
2018-11-27T06:28:00.143Z,70.30
2018-11-27T06:30:30.245Z,69.60
2018-11-27T06:32:59.844Z,69.80
2018-11-27T06:35:29.753Z,69.70
2018-11-27T06:37:58.204Z,69.00
2018-11-27T06:40:28.069Z,69.60
2018-11-27T06:42:56.489Z,69.50
2018-11-27T06:45:24.950Z,69.00
2018-11-27T06:47:53.652Z,69.00
2018-11-27T06:50:23.052Z,69.70
2018-11-27T06:52:51.399Z,69.40
2018-11-27T06:55:21.004Z,69.30
2018-11-27T06:57:49.797Z,69.30
2018-11-27T07:00:21.140Z,69.50
2018-11-27T07:02:49.585Z,69.40
2018-11-27T07:05:17.953Z,70.00
2018-11-27T07:07:46.378Z,70.20
2018-11-27T07:10:20.881Z,69.10
2018-11-27T07:12:50.554Z,70.00
2018-11-27T07:15:20.666Z,69.90
2018-11-27T07:17:49.107Z,69.60
2018-11-27T07:20:17.513Z,68.40
2018-11-27T07:22:45.978Z,69.20
2018-11-27T07:25:15.523Z,68.30
2018-11-27T07:27:48.162Z,68.70
2018-11-27T07:30:18.480Z,69.40
2018-11-27T07:32:46.977Z,69.70
2018-11-27T07:35:16.203Z,68.90
2018-11-27T07:37:44.931Z,68.40
2018-11-27T07:40:14.803Z,67.80
2018-11-27T07:42:43.442Z,68.70
2018-11-27T07:45:14.600Z,67.80
2018-11-27T07:47:43.165Z,68.40
2018-11-27T07:50:12.230Z,68.50
2018-11-27T07:52:41.271Z,69.00
2018-11-27T07:55:14.510Z,68.70
2018-11-27T07:57:43.342Z,68.20
2018-11-27T08:00:16.130Z,68.10
2018-11-27T08:02:45.733Z,69.30
2018-11-27T08:05:18.984Z,68.70
2018-11-27T08:07:49.968Z,68.10
2018-11-27T08:10:20.128Z,67.30
2018-11-27T08:12:48.543Z,67.10
2018-11-27T08:15:18.388Z,67.70
2018-11-27T08:17:46.809Z,68.70
2018-11-27T08:20:23.575Z,68.40
2018-11-27T08:22:52.009Z,67.30
2018-11-27T08:25:20.497Z,66.70
2018-11-27T08:27:48.913Z,67.90
2018-11-27T08:30:20.375Z,68.40
2018-11-27T08:32:49.365Z,68.50
2018-11-27T08:35:22.963Z,67.80
2018-11-27T08:37:52.576Z,68.40
2018-11-27T08:40:22.445Z,68.40
2018-11-27T08:42:50.997Z,67.90
2018-11-27T08:45:21.543Z,69.40
2018-11-27T08:47:51.005Z,68.80
2018-11-27T08:50:21.863Z,67.50
2018-11-27T08:52:58.687Z,67.40
2018-11-27T08:55:28.805Z,68.10
2018-11-27T08:57:57.234Z,67.40
2018-11-27T09:00:26.430Z,67.40
2018-11-27T09:02:55.024Z,67.90
2018-11-27T09:05:23.434Z,68.10
2018-11-27T09:07:51.823Z,67.40
2018-11-27T09:10:21.886Z,67.00
2018-11-27T09:12:50.539Z,67.70
2018-11-27T09:15:20.341Z,66.60
2018-11-27T09:17:54.929Z,65.20
2018-11-27T09:20:23.358Z,65.40
2018-11-27T09:22:52.095Z,65.90
2018-11-27T09:25:20.600Z,64.70
2018-11-27T09:27:49.709Z,65.20
2018-11-27T09:30:23.480Z,64.80
2018-11-27T09:32:52.577Z,64.50
2018-11-27T09:35:21.145Z,64.80
2018-11-27T09:37:49.472Z,62.20
2018-11-27T09:40:19.291Z,62.80
2018-11-27T09:42:48.010Z,62.70
2018-11-27T09:45:21.514Z,63.60
2018-11-27T09:47:51.113Z,61.50
2018-11-27T09:50:19.792Z,62.20
2018-11-27T09:52:48.576Z,60.50
2018-11-27T09:55:18.863Z,61.40
2018-11-27T09:57:47.299Z,61.90
2018-11-27T10:00:22.055Z,61.60
2018-11-27T10:02:51.557Z,61.50
2018-11-27T10:05:20.213Z,61.50
2018-11-27T10:07:48.730Z,60.30
2018-11-27T10:10:18.956Z,61.10
2018-11-27T10:12:47.416Z,61.50
2018-11-27T10:15:18.055Z,60.20
2018-11-27T10:17:48.948Z,60.00
2018-11-27T10:20:18.809Z,58.90
2018-11-27T10:22:47.560Z,60.10
2018-11-27T10:25:16.060Z,59.60
2018-11-27T10:27:45.012Z,60.00
2018-11-27T10:30:20.175Z,58.60
2018-11-27T10:32:51.041Z,59.70
2018-11-27T10:35:24.791Z,58.00
2018-11-27T10:37:53.256Z,58.20
2018-11-27T10:40:21.695Z,58.90
2018-11-27T10:42:50.239Z,57.80
2018-11-27T10:45:20.297Z,58.10
2018-11-27T10:47:49.879Z,57.20
2018-11-27T10:50:18.922Z,58.90
2018-11-27T10:52:48.547Z,57.00
2018-11-27T10:55:17.982Z,56.90
2018-11-27T10:57:46.427Z,57.10
2018-11-27T11:00:23.985Z,57.00
2018-11-27T11:02:56.575Z,57.40
2018-11-27T11:05:27.755Z,57.90
2018-11-27T11:07:55.109Z,58.10
2018-11-27T11:10:23.543Z,57.10
2018-11-27T11:12:52.082Z,57.50
2018-11-27T11:15:20.493Z,57.10
2018-11-27T11:17:49.076Z,56.90
2018-11-27T11:20:18.027Z,55.80
2018-11-27T11:22:46.605Z,56.60
2018-11-27T11:25:19.486Z,56.60
2018-11-27T11:27:56.223Z,56.40
2018-11-27T11:30:25.007Z,55.90
2018-11-27T11:32:53.476Z,55.70
2018-11-27T11:35:21.868Z,55.90
2018-11-27T11:37:50.872Z,55.90
2018-11-27T11:40:21.603Z,55.40
2018-11-27T11:42:51.473Z,54.80
2018-11-27T11:45:19.936Z,55.50
2018-11-27T11:47:48.622Z,55.70
2018-11-27T11:50:20.431Z,57.30
2018-11-27T11:52:50.402Z,56.20
2018-11-27T11:55:19.977Z,55.80
2018-11-27T11:57:48.422Z,56.50
2018-11-27T12:00:20.955Z,56.60
2018-11-27T12:02:49.341Z,55.60
2018-11-27T12:05:17.760Z,56.10
2018-11-27T12:07:46.210Z,56.70
2018-11-27T12:10:15.593Z,56.70
2018-11-27T12:12:45.267Z,55.30
2018-11-27T12:15:15.750Z,55.30
2018-11-27T12:17:44.785Z,54.50
2018-11-27T12:20:14.467Z,55.10
2018-11-27T12:22:45.126Z,52.40
2018-11-27T12:25:14.125Z,51.90
2018-11-27T12:27:42.417Z,52.50
2018-11-27T12:30:14.957Z,52.40
2018-11-27T12:32:44.589Z,50.20
2018-11-27T12:35:13.616Z,48.50
2018-11-27T12:37:42.372Z,43.20
2018-11-27T12:40:14.643Z,44.60
2018-11-27T12:42:43.074Z,45.50
2018-11-27T12:45:14.392Z,47.30
2018-11-27T12:47:42.963Z,47.20
2018-11-27T12:50:17.583Z,47.10
2018-11-27T12:52:46.111Z,47.40
2018-11-27T12:55:17.342Z,42.40
2018-11-27T12:57:46.402Z,40.00
2018-11-27T13:00:16.099Z,42.70
2018-11-27T13:02:44.550Z,41.30
2018-11-27T13:05:15.851Z,42.30
2018-11-27T13:07:44.459Z,42.40
2018-11-27T13:10:15.512Z,43.10
2018-11-27T13:12:44.802Z,42.40
2018-11-27T13:15:18.374Z,42.40
2018-11-27T13:17:47.768Z,41.40
2018-11-27T13:20:18.063Z,41.60
2018-11-27T13:22:47.581Z,42.40
2018-11-27T13:25:17.912Z,42.00
2018-11-27T13:27:46.548Z,42.30
2018-11-27T13:30:23.851Z,42.40
2018-11-27T13:32:55.078Z,43.50
2018-11-27T13:35:23.566Z,41.10
2018-11-27T13:37:52.091Z,42.40
2018-11-27T13:40:20.784Z,42.40
2018-11-27T13:42:49.412Z,42.40
2018-11-27T13:45:17.903Z,42.40
2018-11-27T13:47:47.194Z,42.40
2018-11-27T13:50:17.571Z,42.40
2018-11-27T13:52:47.491Z,42.40
2018-11-27T13:55:21.767Z,39.90
2018-11-27T13:57:51.279Z,41.10
2018-11-27T14:00:20.782Z,42.40
2018-11-27T14:02:52.093Z,40.30
2018-11-27T14:05:23.150Z,42.40
2018-11-27T14:07:52.102Z,40.40
2018-11-27T14:10:21.054Z,39.70
2018-11-27T14:12:49.787Z,40.70
2018-11-27T14:15:22.491Z,39.80
2018-11-27T14:17:55.765Z,39.80
2018-11-27T14:20:24.260Z,40.00
2018-11-27T14:22:53.983Z,40.70
2018-11-27T14:25:24.483Z,40.30
2018-11-27T14:27:57.782Z,39.20
2018-11-27T14:30:31.687Z,39.40
2018-11-27T14:33:01.564Z,39.30
2018-11-27T14:35:34.976Z,39.20
2018-11-27T14:38:04.382Z,40.00
2018-11-27T14:40:33.608Z,40.70
2018-11-27T14:43:04.219Z,39.70
2018-11-27T14:45:32.666Z,40.20
2018-11-27T14:48:01.234Z,40.70
2018-11-27T14:50:30.325Z,40.10
2018-11-27T14:53:00.710Z,40.20
2018-11-27T14:55:35.400Z,40.60
2018-11-27T14:58:04.233Z,40.50
2018-11-27T15:00:33.101Z,40.70
2018-11-27T15:03:01.935Z,41.50
2018-11-27T15:05:37.217Z,40.60
2018-11-27T15:08:09.080Z,40.50
2018-11-27T15:10:38.536Z,40.60
2018-11-27T15:13:08.915Z,40.40
2018-11-27T15:15:37.390Z,40.30
2018-11-27T15:18:08.257Z,41.50
2018-11-27T15:20:37.842Z,41.20
2018-11-27T15:23:07.328Z,41.50
2018-11-27T15:25:40.880Z,41.50
2018-11-27T15:28:09.761Z,42.00
2018-11-27T15:30:46.164Z,42.10
2018-11-27T15:33:18.824Z,42.00
2018-11-27T15:35:48.008Z,42.00
2018-11-27T15:38:22.477Z,42.00
2018-11-27T15:40:52.913Z,42.00
2018-11-27T15:43:22.765Z,42.00
2018-11-27T15:45:53.619Z,41.30
2018-11-27T15:48:29.530Z,42.00
2018-11-27T15:51:01.333Z,42.00
2018-11-27T15:53:35.472Z,42.00
2018-11-27T15:56:10.048Z,42.00
2018-11-27T15:58:39.946Z,41.90
2018-11-27T16:01:09.437Z,42.70
2018-11-27T16:03:38.529Z,42.70
2018-11-27T16:06:10.684Z,42.70
2018-11-27T16:08:39.821Z,42.90
2018-11-27T16:11:09.405Z,41.90
2018-11-27T16:13:38.822Z,42.80
2018-11-27T16:16:09.159Z,42.30
2018-11-27T16:18:45.165Z,43.30
2018-11-27T16:21:33.348Z,42.10
2018-11-27T16:24:10.817Z,43.10
2018-11-27T16:26:52.085Z,43.80
2018-11-27T16:29:23.126Z,43.60
2018-11-27T16:31:59.822Z,44.50
2018-11-27T16:37:16.929Z,44.80
2018-11-27T16:40:04.087Z,44.90
2018-11-27T16:42:35.460Z,44.70
2018-11-27T16:45:18.052Z,45.40
2018-11-27T16:47:54.827Z,45.60
2018-11-27T16:53:08.763Z,45.60
2018-11-27T16:55:39.944Z,46.10
2018-11-27T16:58:09.378Z,46.10
2018-11-27T17:00:38.042Z,46.40
2018-11-27T17:03:08.012Z,46.30
2018-11-27T17:05:44.375Z,46.30
2018-11-27T17:08:13.018Z,46.90
2018-11-27T17:10:45.262Z,46.50
2018-11-27T17:13:15.458Z,46.90
2018-11-27T17:15:44.152Z,47.90
2018-11-27T17:18:13.805Z,48.00
2018-11-27T17:20:44.952Z,47.60
2018-11-27T17:23:23.002Z,47.60
2018-11-27T17:25:51.641Z,48.40
2018-11-27T17:28:24.104Z,47.40
2018-11-27T17:31:01.125Z,48.30
2018-11-27T17:33:34.284Z,48.00
2018-11-27T17:36:06.433Z,48.50
2018-11-27T17:38:35.199Z,47.30
2018-11-27T17:41:04.020Z,47.00
2018-11-27T17:43:34.079Z,47.50
2018-11-27T17:46:02.920Z,48.60
2018-11-27T17:48:32.943Z,49.10
2018-11-27T17:51:08.011Z,49.00
2018-11-27T17:53:39.822Z,48.80
2018-11-27T17:58:42.675Z,49.80
2018-11-27T18:01:13.876Z,49.20
2018-11-27T18:03:42.736Z,49.70
2018-11-27T18:06:14.517Z,49.90
2018-11-27T18:08:44.722Z,50.60
2018-11-27T18:11:17.017Z,50.90
2018-11-27T18:13:48.924Z,52.00
2018-11-27T18:18:58.992Z,52.70
2018-11-27T18:21:32.997Z,53.60
2018-11-27T18:26:44.949Z,55.20
2018-11-27T18:29:13.515Z,56.50
2018-11-27T18:31:45.808Z,56.30
2018-11-27T18:34:15.515Z,56.30
2018-11-27T18:36:46.577Z,56.70
2018-11-27T18:39:15.082Z,56.70
2018-11-27T18:44:34.023Z,58.40
2018-11-27T18:47:03.028Z,58.10
2018-11-27T18:49:31.590Z,58.70
2018-11-27T18:52:00.063Z,59.60
2018-11-27T18:54:36.724Z,59.70
2018-11-27T18:57:06.117Z,60.40
2018-11-27T18:59:34.651Z,61.50
2018-11-27T19:02:04.204Z,63.00
2018-11-27T19:04:36.561Z,63.40
2018-11-27T19:07:06.815Z,64.40
2018-11-27T19:09:35.538Z,65.30
2018-11-27T19:12:04.634Z,66.30
2018-11-27T19:14:35.544Z,66.70
2018-11-27T19:17:05.447Z,67.20
2018-11-27T19:19:34.188Z,67.20
2018-11-27T19:22:03.098Z,67.50
2018-11-27T19:24:32.068Z,68.00
2018-11-27T19:27:01.523Z,69.20
2018-11-27T19:29:34.651Z,69.00
2018-11-27T19:32:10.687Z,69.60
2018-11-27T19:34:39.811Z,70.30
2018-11-27T19:37:12.647Z,72.30
2018-11-27T19:39:42.223Z,72.20
2018-11-27T19:42:10.942Z,72.00
2018-11-27T19:44:47.365Z,72.00
2018-11-27T19:47:16.032Z,72.20
2018-11-27T19:49:45.709Z,72.60
2018-11-27T19:52:16.710Z,72.60
2018-11-27T19:54:47.736Z,72.90
2018-11-27T19:57:17.092Z,72.90
2018-11-27T19:59:46.488Z,71.90
2018-11-27T20:02:16.464Z,70.60
2018-11-27T20:04:45.487Z,70.10
2018-11-27T20:07:15.943Z,69.50
2018-11-27T20:09:45.111Z,69.20
2018-11-27T20:12:22.432Z,68.30
2018-11-27T20:15:04.544Z,66.60
2018-11-27T20:17:39.984Z,65.70
2018-11-27T20:20:12.389Z,64.90
2018-11-27T20:22:41.308Z,64.40
2018-11-27T20:25:11.761Z,63.70
2018-11-27T20:27:40.872Z,63.10
2018-11-27T20:30:16.715Z,61.50
2018-11-27T20:33:04.929Z,60.10
2018-11-27T20:35:39.743Z,59.70
2018-11-27T20:38:11.278Z,59.20
2018-11-27T20:40:42.209Z,59.90
2018-11-27T20:43:10.818Z,58.50
2018-11-27T20:45:41.876Z,58.10
2018-11-27T20:48:15.607Z,58.00
2018-11-27T20:50:45.069Z,57.60
2018-11-27T20:53:14.249Z,56.90
2018-11-27T20:55:43.264Z,56.10
2018-11-27T20:58:12.006Z,55.90
2018-11-27T21:00:44.563Z,56.00
2018-11-27T21:03:13.558Z,56.70
2018-11-27T21:05:44.995Z,56.70
2018-11-27T21:08:13.912Z,56.90
2018-11-27T21:10:44.136Z,56.70
2018-11-27T21:13:13.151Z,56.80
2018-11-27T21:15:43.402Z,56.80
2018-11-27T21:18:13.338Z,57.20
2018-11-27T21:20:43.283Z,57.90
2018-11-27T21:23:11.982Z,58.30
2018-11-27T21:25:41.279Z,58.60
2018-11-27T21:28:13.809Z,58.90
2018-11-27T21:30:44.047Z,58.80
2018-11-27T21:33:13.994Z,60.10
2018-11-27T21:35:42.677Z,61.60
2018-11-27T21:38:11.450Z,62.40
2018-11-27T21:40:40.394Z,63.20
2018-11-27T21:43:09.102Z,64.90
2018-11-27T21:45:38.036Z,65.20
2018-11-27T21:48:07.644Z,65.90
2018-11-27T21:50:40.550Z,65.60
2018-11-27T21:53:10.693Z,65.80
2018-11-27T21:55:40.389Z,66.10
2018-11-27T21:58:09.650Z,66.80
2018-11-27T22:00:40.817Z,67.00
2018-11-27T22:03:11.438Z,68.40
2018-11-27T22:05:40.184Z,68.20
2018-11-27T22:08:09.624Z,68.80
2018-11-27T22:10:38.989Z,69.30
2018-11-27T22:13:09.662Z,69.00
2018-11-27T22:15:40.201Z,68.30
2018-11-27T22:18:12.250Z,68.30
2018-11-27T22:20:41.002Z,68.60
2018-11-27T22:23:10.072Z,68.50
2018-11-27T22:25:39.553Z,68.80
2018-11-27T22:28:10.167Z,68.80
2018-11-27T22:30:39.735Z,68.20
2018-11-27T22:33:18.935Z,67.50
2018-11-27T22:35:53.399Z,67.50
2018-11-27T22:38:22.414Z,67.50
2018-11-27T22:40:54.421Z,67.40
2018-11-27T22:43:26.724Z,68.30
2018-11-27T22:45:55.752Z,68.40
2018-11-27T22:48:25.887Z,69.60
2018-11-27T22:50:57.359Z,69.00
2018-11-27T22:53:26.924Z,69.20
2018-11-27T22:55:58.050Z,70.20
2018-11-27T22:58:28.002Z,70.30
2018-11-27T23:00:57.210Z,70.00
2018-11-27T23:03:26.268Z,70.50
2018-11-27T23:05:58.019Z,70.20
2018-11-27T23:08:27.226Z,71.00
2018-11-27T23:10:56.375Z,70.40
2018-11-27T23:13:25.900Z,70.30
2018-11-27T23:15:55.793Z,70.40
2018-11-27T23:18:25.888Z,70.30
2018-11-27T23:20:55.006Z,70.10
2018-11-27T23:23:24.613Z,70.40
2018-11-27T23:25:55.537Z,71.10
2018-11-27T23:28:24.225Z,71.70
2018-11-27T23:30:55.054Z,71.10
2018-11-27T23:33:24.056Z,71.60
2018-11-27T23:35:54.264Z,71.50
2018-11-27T23:38:22.972Z,72.00
2018-11-27T23:40:52.819Z,71.50
2018-11-27T23:43:21.421Z,72.00
2018-11-27T23:45:50.147Z,72.40
2018-11-27T23:48:19.345Z,72.90
2018-11-27T23:50:48.225Z,72.90
2018-11-27T23:53:18.052Z,73.50
2018-11-27T23:55:46.512Z,74.00
2018-11-27T23:58:15.517Z,73.90
